createdAt,value
2023-02-06T00:00:48.450Z,18.00
2023-02-06T00:03:16.128Z,19.07
2023-02-06T00:05:44.270Z,25.30
2023-02-06T00:08:12.059Z,16.13
2023-02-06T00:10:39.790Z,26.00
2023-02-06T00:13:07.694Z,16.83
2023-02-06T00:15:52.765Z,14.93
2023-02-06T00:18:21.038Z,17.73
2023-02-06T00:20:48.756Z,20.63
2023-02-06T00:23:19.280Z,18.13
2023-02-06T00:25:53.516Z,19.37
2023-02-06T00:28:21.226Z,14.40
2023-02-06T00:30:50.531Z,12.40
2023-02-06T00:33:19.858Z,19.90
2023-02-06T00:35:48.854Z,24.57
2023-02-06T00:38:16.553Z,22.70
2023-02-06T00:40:44.305Z,13.80
2023-02-06T00:43:11.982Z,23.40
2023-02-06T00:45:39.776Z,19.40
2023-02-06T00:48:10.154Z,25.67
2023-02-06T00:50:37.925Z,25.90
2023-02-06T00:53:05.723Z,19.00
2023-02-06T00:55:33.735Z,27.17
2023-02-06T00:58:01.538Z,18.90
2023-02-06T01:00:29.259Z,14.33
2023-02-06T01:02:59.065Z,27.17
2023-02-06T01:05:28.326Z,26.20
2023-02-06T01:07:56.058Z,21.20
2023-02-06T01:10:23.737Z,30.80
2023-02-06T01:12:51.621Z,20.27
2023-02-06T01:15:19.411Z,21.60
2023-02-06T01:17:47.211Z,20.33
2023-02-06T01:20:15.013Z,22.53
2023-02-06T01:22:44.078Z,20.13
2023-02-06T01:25:12.119Z,24.07
2023-02-06T01:27:39.914Z,21.00
2023-02-06T01:30:09.706Z,26.73
2023-02-06T01:32:38.065Z,22.23
2023-02-06T01:35:06.766Z,19.70
2023-02-06T01:37:34.485Z,23.90
2023-02-06T01:40:03.682Z,30.87
2023-02-06T01:42:31.538Z,20.77
2023-02-06T01:45:32.894Z,19.43
2023-02-06T01:48:02.312Z,24.03
2023-02-06T01:50:29.969Z,20.37
2023-02-06T01:52:57.750Z,18.27
2023-02-06T01:55:26.961Z,21.70
2023-02-06T01:57:54.772Z,28.77
2023-02-06T02:03:01.466Z,31.77
2023-02-06T02:05:29.650Z,29.60
2023-02-06T02:08:01.263Z,30.17
2023-02-06T02:10:31.539Z,25.27
2023-02-06T02:12:59.514Z,24.00
2023-02-06T02:15:34.242Z,26.87
2023-02-06T02:18:04.757Z,18.60
2023-02-06T02:20:58.531Z,24.83
2023-02-06T02:23:35.143Z,28.37
2023-02-06T02:26:30.766Z,23.40
2023-02-06T02:29:41.766Z,20.27
2023-02-06T02:32:27.667Z,23.37
2023-02-06T02:35:46.235Z,24.87
2023-02-06T02:38:19.880Z,22.83
2023-02-06T02:40:50.292Z,25.67
2023-02-06T02:43:22.598Z,25.87
2023-02-06T02:45:52.875Z,25.63
2023-02-06T02:48:24.377Z,23.10
2023-02-06T02:50:53.959Z,30.23
2023-02-06T02:53:21.817Z,24.13
2023-02-06T02:55:49.663Z,27.40
2023-02-06T02:58:19.569Z,31.60
2023-02-06T03:00:49.607Z,25.57
2023-02-06T03:03:18.702Z,25.33
2023-02-06T03:06:02.742Z,21.73
2023-02-06T03:08:35.561Z,29.13
2023-02-06T03:11:06.695Z,27.90
2023-02-06T03:13:37.155Z,33.40
2023-02-06T03:16:07.940Z,32.03
2023-02-06T03:18:40.326Z,23.67
2023-02-06T03:21:10.501Z,25.60
2023-02-06T03:23:40.076Z,29.53
2023-02-06T03:26:09.610Z,30.77
2023-02-06T03:28:40.136Z,29.13
2023-02-06T03:31:10.139Z,26.40
2023-02-06T03:33:41.242Z,33.77
2023-02-06T03:36:17.027Z,25.37
2023-02-06T03:38:45.473Z,28.50
2023-02-06T03:41:13.685Z,21.57
2023-02-06T03:43:42.106Z,26.13
2023-02-06T03:46:12.552Z,22.13
2023-02-06T03:48:41.965Z,24.80
2023-02-06T03:51:13.082Z,32.67
2023-02-06T03:53:41.208Z,41.30
2023-02-06T03:56:10.860Z,30.33
2023-02-06T03:58:39.746Z,31.33
2023-02-06T04:01:07.631Z,29.33
2023-02-06T04:03:35.556Z,29.47
2023-02-06T04:06:03.919Z,24.57
2023-02-06T04:08:32.990Z,22.33
2023-02-06T04:11:00.932Z,24.70
2023-02-06T04:13:28.745Z,20.77
2023-02-06T04:15:57.655Z,25.73
2023-02-06T04:18:25.678Z,23.20
2023-02-06T04:20:53.473Z,30.40
2023-02-06T04:23:21.527Z,25.07
2023-02-06T04:25:50.739Z,28.27
2023-02-06T04:28:18.649Z,26.10
2023-02-06T04:30:46.632Z,21.77
2023-02-06T04:33:14.544Z,26.40
2023-02-06T04:35:42.346Z,29.03
2023-02-06T04:38:10.197Z,23.43
2023-02-06T04:40:38.090Z,23.03
2023-02-06T04:43:07.302Z,26.87
2023-02-06T04:45:35.811Z,21.17
2023-02-06T04:48:03.879Z,20.97
2023-02-06T04:50:34.513Z,24.73
2023-02-06T04:53:02.663Z,29.67
2023-02-06T04:55:30.775Z,37.90
2023-02-06T04:57:59.795Z,21.97
2023-02-06T05:00:29.079Z,25.20
2023-02-06T05:02:57.007Z,23.87
2023-02-06T05:05:24.807Z,29.80
2023-02-06T05:07:52.994Z,22.10
2023-02-06T05:10:21.053Z,31.37
2023-02-06T05:12:50.829Z,34.50
2023-02-06T05:15:19.030Z,23.57
2023-02-06T05:17:48.150Z,29.97
2023-02-06T05:20:15.975Z,25.90
2023-02-06T05:22:44.052Z,29.93
2023-02-06T05:25:12.031Z,28.70
2023-02-06T05:27:45.832Z,35.90
2023-02-06T05:30:14.692Z,29.47
2023-02-06T05:32:42.640Z,34.03
2023-02-06T05:35:11.795Z,29.40
2023-02-06T05:37:39.721Z,34.27
2023-02-06T05:40:08.187Z,21.80
2023-02-06T05:42:36.536Z,28.63
2023-02-06T05:45:05.297Z,22.67
2023-02-06T05:47:33.117Z,27.60
2023-02-06T05:50:01.941Z,26.23
2023-02-06T05:52:31.222Z,25.73
2023-02-06T05:55:00.347Z,36.87
2023-02-06T05:57:28.276Z,30.07
2023-02-06T05:59:56.432Z,29.10
2023-02-06T06:02:24.240Z,24.13
2023-02-06T06:04:52.417Z,25.20
2023-02-06T06:07:20.217Z,28.07
2023-02-06T06:09:49.547Z,30.90
2023-02-06T06:12:17.859Z,21.60
2023-02-06T06:14:45.644Z,23.83
2023-02-06T06:17:15.878Z,29.00
2023-02-06T06:19:43.755Z,27.37
2023-02-06T06:22:12.044Z,27.63
2023-02-06T06:24:40.265Z,24.43
2023-02-06T06:27:10.758Z,28.33
2023-02-06T06:29:38.694Z,30.47
2023-02-06T06:32:06.786Z,28.20
2023-02-06T06:34:34.659Z,35.40
2023-02-06T06:37:02.653Z,27.23
2023-02-06T06:39:30.588Z,30.47
2023-02-06T06:41:58.459Z,34.97
2023-02-06T06:44:27.634Z,40.13
2023-02-06T06:46:56.648Z,33.93
2023-02-06T06:49:24.679Z,25.37
2023-02-06T06:51:52.762Z,26.07
2023-02-06T06:54:21.587Z,22.13
2023-02-06T06:56:49.828Z,26.40
2023-02-06T06:59:17.742Z,28.90
2023-02-06T07:01:48.976Z,30.27
2023-02-06T07:04:19.063Z,25.27
2023-02-06T07:06:46.951Z,25.77
2023-02-06T07:09:14.940Z,38.40
2023-02-06T07:11:43.059Z,33.47
2023-02-06T07:14:11.192Z,27.77
2023-02-06T07:16:39.336Z,29.07
2023-02-06T07:19:09.948Z,33.50
2023-02-06T07:21:38.014Z,29.00
2023-02-06T07:24:06.392Z,29.43
2023-02-06T07:26:34.182Z,24.83
2023-02-06T07:29:02.384Z,27.63
2023-02-06T07:31:30.232Z,30.23
2023-02-06T07:33:58.800Z,31.73
2023-02-06T07:36:28.512Z,41.70
2023-02-06T07:38:56.444Z,36.00
2023-02-06T07:41:28.108Z,34.83
2023-02-06T07:43:56.411Z,33.70
2023-02-06T07:46:24.625Z,33.40
2023-02-06T07:48:52.447Z,32.63
2023-02-06T07:51:20.661Z,24.77
2023-02-06T07:53:52.456Z,25.57
2023-02-06T07:56:21.049Z,28.87
2023-02-06T07:58:51.660Z,22.57
2023-02-06T08:03:47.089Z,19.07
2023-02-06T08:06:16.206Z,21.47
2023-02-06T08:08:43.998Z,23.10
2023-02-06T08:11:14.904Z,17.83
2023-02-06T08:13:42.862Z,23.03
2023-02-06T08:16:12.402Z,16.57
2023-02-06T08:18:40.187Z,22.97
2023-02-06T08:21:08.986Z,23.10
2023-02-06T08:23:36.651Z,18.43
2023-02-06T08:26:04.814Z,18.67
2023-02-06T08:28:35.173Z,22.53
2023-02-06T08:31:04.388Z,21.87
2023-02-06T08:33:33.546Z,18.03
2023-02-06T08:36:02.871Z,24.57
2023-02-06T08:38:30.695Z,27.00
2023-02-06T08:40:58.651Z,24.10
2023-02-06T08:43:26.527Z,22.13
2023-02-06T08:45:57.493Z,21.53
2023-02-06T08:48:25.276Z,25.27
2023-02-06T08:51:02.644Z,26.83
2023-02-06T08:53:30.490Z,22.90
2023-02-06T08:56:01.113Z,25.87
2023-02-06T08:58:28.838Z,21.43
2023-02-06T09:00:59.640Z,24.87
2023-02-06T09:03:27.410Z,23.53
2023-02-06T09:06:09.617Z,24.93
2023-02-06T09:08:37.795Z,21.77
2023-02-06T09:11:09.022Z,24.00
2023-02-06T09:13:36.902Z,24.40
2023-02-06T09:16:07.070Z,26.43
2023-02-06T09:18:34.992Z,27.73
2023-02-06T09:21:07.426Z,27.17
2023-02-06T09:23:35.850Z,26.80
2023-02-06T09:26:03.585Z,21.23
2023-02-06T09:28:31.400Z,23.03
2023-02-06T09:30:59.241Z,24.77
2023-02-06T09:33:28.439Z,21.67
2023-02-06T09:36:03.529Z,22.90
2023-02-06T09:38:31.205Z,21.23
2023-02-06T09:41:03.866Z,20.23
2023-02-06T09:43:31.782Z,24.27
2023-02-06T09:46:01.534Z,24.33
2023-02-06T09:48:32.127Z,38.13
2023-02-06T09:51:05.093Z,20.70
2023-02-06T09:53:37.710Z,17.67
2023-02-06T09:56:13.299Z,21.87
2023-02-06T09:58:43.433Z,18.47
2023-02-06T10:01:14.046Z,22.57
2023-02-06T10:03:58.693Z,16.57
2023-02-06T10:06:27.776Z,20.93
2023-02-06T10:09:00.810Z,18.37
2023-02-06T10:11:40.201Z,16.07
2023-02-06T10:14:11.919Z,16.23
2023-02-06T10:16:42.103Z,14.33
2023-02-06T10:19:16.297Z,14.40
2023-02-06T10:21:47.136Z,10.70
2023-02-06T10:24:17.500Z,16.10
2023-02-06T10:26:45.435Z,9.17
2023-02-06T10:29:23.619Z,12.67
2023-02-06T10:31:56.527Z,14.00
2023-02-06T10:34:36.893Z,10.27
2023-02-06T10:37:23.526Z,11.87
2023-02-06T10:40:09.918Z,13.07
2023-02-06T10:42:44.543Z,12.17
2023-02-06T10:45:20.229Z,13.93
2023-02-06T10:47:50.927Z,13.40
2023-02-06T10:50:23.902Z,8.20
2023-02-06T10:52:51.882Z,9.50
2023-02-06T10:55:23.912Z,11.85
2023-02-06T10:57:54.586Z,12.52
2023-02-06T11:00:24.660Z,12.48
2023-02-06T11:03:06.621Z,10.82
2023-02-06T11:05:38.346Z,13.95
2023-02-06T11:08:12.038Z,10.90
2023-02-06T11:10:39.981Z,9.35
2023-02-06T11:13:13.884Z,12.20
2023-02-06T11:15:45.331Z,9.40
2023-02-06T11:18:14.260Z,10.13
2023-02-06T11:20:44.572Z,8.73
2023-02-06T11:23:17.361Z,9.88
2023-02-06T11:25:45.296Z,12.77
2023-02-06T11:28:14.612Z,9.52
2023-02-06T11:30:43.990Z,8.90
2023-02-06T11:33:20.739Z,8.52
2023-02-06T11:35:52.414Z,13.45
2023-02-06T11:38:21.716Z,7.13
2023-02-06T11:40:55.843Z,8.88
2023-02-06T11:43:24.377Z,6.50
2023-02-06T11:45:53.847Z,8.80
2023-02-06T11:48:35.953Z,9.68
2023-02-06T11:51:05.458Z,10.43
2023-02-06T11:53:33.375Z,11.68
2023-02-06T11:56:06.719Z,12.88
2023-02-06T11:58:34.475Z,12.15
2023-02-06T12:01:05.221Z,12.55
2023-02-06T12:03:35.862Z,10.70
2023-02-06T12:06:09.943Z,10.48
2023-02-06T12:08:42.157Z,10.37
2023-02-06T12:11:14.377Z,10.90
2023-02-06T12:13:44.968Z,11.27
2023-02-06T12:16:14.235Z,9.67
2023-02-06T12:18:44.310Z,11.00
2023-02-06T12:21:15.170Z,11.57
2023-02-06T12:23:46.360Z,11.13
2023-02-06T12:26:17.746Z,10.43
2023-02-06T12:28:51.260Z,13.93
2023-02-06T12:31:20.900Z,10.50
2023-02-06T12:33:53.440Z,6.23
2023-02-06T12:36:25.652Z,9.93
2023-02-06T12:38:55.361Z,11.43
2023-02-06T12:41:40.332Z,10.70
2023-02-06T12:44:14.359Z,12.17
2023-02-06T12:46:42.304Z,12.77
2023-02-06T12:49:13.760Z,12.87
2023-02-06T12:51:47.350Z,14.17
2023-02-06T12:54:17.118Z,9.83
2023-02-06T12:56:46.710Z,16.23
2023-02-06T12:59:31.620Z,18.27
2023-02-06T13:02:01.317Z,19.77
2023-02-06T13:04:30.969Z,15.83
2023-02-06T13:07:04.284Z,13.90
2023-02-06T13:09:33.875Z,15.23
2023-02-06T13:12:08.694Z,16.87
2023-02-06T13:14:37.828Z,16.73
2023-02-06T13:17:10.197Z,15.47
2023-02-06T13:20:04.258Z,16.60
2023-02-06T13:22:44.823Z,17.17
2023-02-06T13:25:46.181Z,19.50
2023-02-06T13:28:56.111Z,16.60
2023-02-06T13:31:29.158Z,16.53
2023-02-06T13:33:59.123Z,16.13
2023-02-06T13:36:42.961Z,19.13
2023-02-06T13:39:17.051Z,12.67
2023-02-06T13:41:44.966Z,15.50
2023-02-06T13:44:16.881Z,21.57
2023-02-06T13:47:08.519Z,20.10
2023-02-06T13:49:59.320Z,20.43
2023-02-06T13:52:29.678Z,13.47
2023-02-06T13:55:06.153Z,21.83
2023-02-06T13:57:41.307Z,16.20
2023-02-06T14:00:12.241Z,15.20
2023-02-06T14:02:40.811Z,13.03
2023-02-06T14:05:11.784Z,14.80
2023-02-06T14:07:50.307Z,16.23
2023-02-06T14:10:53.287Z,16.70
2023-02-06T14:13:30.319Z,11.67
2023-02-06T14:16:02.970Z,16.77
2023-02-06T14:18:41.493Z,11.47
2023-02-06T14:21:16.156Z,9.17
2023-02-06T14:23:56.884Z,9.87
2023-02-06T14:26:32.454Z,11.00
2023-02-06T14:29:03.562Z,7.97
2023-02-06T14:31:44.972Z,8.77
2023-02-06T14:34:24.473Z,7.17
2023-02-06T14:37:14.263Z,14.23
2023-02-06T14:39:44.492Z,7.63
2023-02-06T14:42:18.534Z,8.20
2023-02-06T14:44:50.577Z,10.10
2023-02-06T14:47:19.617Z,8.47
2023-02-06T14:49:47.426Z,10.37
2023-02-06T14:52:18.798Z,7.60
2023-02-06T14:54:46.743Z,9.53
2023-02-06T14:57:20.795Z,7.03
2023-02-06T14:59:53.779Z,9.97
2023-02-06T15:02:25.797Z,9.07
2023-02-06T15:04:53.986Z,7.57
2023-02-06T15:07:24.208Z,9.10
2023-02-06T15:10:07.019Z,6.97
2023-02-06T15:12:36.432Z,8.67
2023-02-06T15:15:16.411Z,9.60
2023-02-06T15:17:44.413Z,10.27
2023-02-06T15:20:30.891Z,9.70
2023-02-06T15:23:11.681Z,12.53
2023-02-06T15:25:50.791Z,9.93
2023-02-06T15:28:22.454Z,11.80
2023-02-06T15:30:54.254Z,12.00
2023-02-06T15:33:23.465Z,15.23
2023-02-06T15:35:53.119Z,22.67
2023-02-06T15:38:21.963Z,13.43
2023-02-06T15:40:51.558Z,10.27
2023-02-06T15:43:22.118Z,15.17
2023-02-06T15:45:50.950Z,16.17
2023-02-06T15:48:20.738Z,17.30
2023-02-06T15:50:59.631Z,14.03
2023-02-06T15:53:33.532Z,21.93
2023-02-06T15:56:01.413Z,11.37
2023-02-06T15:58:31.359Z,14.27
2023-02-06T16:00:59.245Z,12.60
2023-02-06T16:03:27.848Z,17.67
2023-02-06T16:05:56.455Z,19.17
2023-02-06T16:08:26.264Z,16.60
2023-02-06T16:10:54.849Z,13.50
2023-02-06T16:13:26.019Z,13.73
2023-02-06T16:16:23.940Z,16.93
2023-02-06T16:18:53.428Z,16.07
2023-02-06T16:21:26.881Z,20.07
2023-02-06T16:24:03.327Z,17.43
2023-02-06T16:26:31.740Z,17.30
2023-02-06T16:29:00.946Z,25.17
2023-02-06T16:31:31.445Z,19.17
2023-02-06T16:34:03.121Z,20.83
2023-02-06T16:36:31.844Z,20.03
2023-02-06T16:39:04.079Z,22.23
2023-02-06T16:41:35.447Z,25.50
2023-02-06T16:44:05.295Z,23.57
2023-02-06T16:46:34.538Z,26.30
2023-02-06T16:49:02.550Z,25.67
2023-02-06T16:51:31.064Z,18.97
2023-02-06T16:53:58.949Z,25.30
2023-02-06T16:56:26.786Z,27.77
2023-02-06T16:58:54.775Z,30.03
2023-02-06T17:01:25.155Z,23.10
2023-02-06T17:03:54.522Z,26.80
2023-02-06T17:06:24.310Z,30.13
2023-02-06T17:08:54.020Z,24.83
2023-02-06T17:11:21.929Z,28.20
2023-02-06T17:13:49.944Z,29.67
2023-02-06T17:16:21.059Z,22.90
2023-02-06T17:18:49.026Z,30.70
2023-02-06T17:21:19.104Z,31.53
2023-02-06T17:23:47.264Z,23.17
2023-02-06T17:26:16.719Z,26.10
2023-02-06T17:28:44.611Z,23.23
2023-02-06T17:33:59.820Z,20.33
2023-02-06T17:36:32.316Z,19.83
2023-02-06T17:39:00.567Z,21.57
2023-02-06T17:41:28.554Z,20.20
2023-02-06T17:43:56.290Z,22.00
2023-02-06T17:46:24.315Z,23.47
2023-02-06T17:48:52.215Z,23.47
2023-02-06T17:51:19.982Z,19.83
2023-02-06T17:53:50.307Z,13.47
2023-02-06T17:56:19.285Z,18.37
2023-02-06T17:58:47.054Z,14.43
2023-02-06T18:01:15.825Z,11.00
2023-02-06T18:03:44.382Z,11.43
2023-02-06T18:06:12.750Z,13.30
2023-02-06T18:08:40.811Z,13.10
2023-02-06T18:11:11.511Z,12.30
2023-02-06T18:13:39.587Z,14.20
2023-02-06T18:16:08.395Z,14.10
2023-02-06T18:18:37.187Z,8.20
2023-02-06T18:21:05.011Z,12.37
2023-02-06T18:23:32.850Z,14.67
2023-02-06T18:26:02.156Z,12.13
2023-02-06T18:28:31.335Z,9.50
2023-02-06T18:31:01.744Z,11.30
2023-02-06T18:33:29.665Z,13.17
2023-02-06T18:35:57.458Z,14.37
2023-02-06T18:38:25.651Z,14.37
2023-02-06T18:40:53.391Z,13.83
2023-02-06T18:43:20.161Z,9.40
2023-02-06T18:45:49.369Z,12.93
2023-02-06T18:48:17.110Z,12.13
2023-02-06T18:50:44.873Z,13.57
2023-02-06T18:53:12.730Z,11.13
2023-02-06T18:55:40.464Z,15.87
2023-02-06T18:58:08.315Z,10.97
2023-02-06T19:00:37.798Z,12.50
2023-02-06T19:03:07.087Z,11.70
2023-02-06T19:05:35.968Z,13.60
2023-02-06T19:08:03.759Z,10.03
2023-02-06T19:10:31.822Z,11.07
2023-02-06T19:12:59.535Z,10.60
2023-02-06T19:15:27.541Z,10.97
2023-02-06T19:17:55.282Z,11.43
2023-02-06T19:20:24.418Z,16.77
2023-02-06T19:22:53.591Z,17.77
2023-02-06T19:25:21.603Z,12.77
2023-02-06T19:27:49.360Z,16.53
2023-02-06T19:30:17.404Z,14.03
2023-02-06T19:32:48.063Z,14.20
2023-02-06T19:35:17.185Z,14.60
2023-02-06T19:37:46.978Z,16.63
2023-02-06T19:40:15.398Z,20.43
2023-02-06T19:42:44.208Z,20.90
2023-02-06T19:45:11.911Z,17.57
2023-02-06T19:47:42.018Z,16.20
2023-02-06T19:50:14.320Z,16.40
2023-02-06T19:52:42.345Z,18.37
2023-02-06T19:55:11.801Z,19.67
2023-02-06T19:57:39.797Z,17.90
2023-02-06T20:00:08.836Z,13.83
2023-02-06T20:02:36.592Z,21.03
2023-02-06T20:05:04.499Z,19.73
2023-02-06T20:07:32.388Z,19.60
2023-02-06T20:10:01.280Z,18.57
2023-02-06T20:12:42.286Z,18.20
2023-02-06T20:15:10.488Z,19.13
2023-02-06T20:17:38.176Z,21.33
2023-02-06T20:20:08.590Z,17.93
2023-02-06T20:22:48.374Z,18.37
2023-02-06T20:25:20.890Z,19.53
2023-02-06T20:27:50.096Z,21.37
2023-02-06T20:30:22.237Z,24.87
2023-02-06T20:32:50.171Z,20.10
2023-02-06T20:35:18.221Z,20.27
2023-02-06T20:37:46.007Z,20.03
2023-02-06T20:40:13.923Z,23.23
2023-02-06T20:42:44.412Z,23.27
2023-02-06T20:45:16.648Z,26.87
2023-02-06T20:47:44.315Z,18.57
2023-02-06T20:50:22.564Z,24.40
2023-02-06T20:52:52.025Z,24.77
2023-02-06T20:55:23.934Z,33.83
2023-02-06T20:57:51.609Z,33.57
2023-02-06T21:00:21.941Z,32.13
2023-02-06T21:02:51.433Z,28.30
2023-02-06T21:05:20.749Z,35.33
2023-02-06T21:07:48.562Z,35.63
2023-02-06T21:10:16.530Z,35.33
2023-02-06T21:12:44.333Z,32.47
2023-02-06T21:15:12.169Z,41.70
2023-02-06T21:17:41.379Z,38.27
2023-02-06T21:20:10.308Z,38.53
2023-02-06T21:22:38.154Z,39.63
2023-02-06T21:25:06.481Z,33.10
2023-02-06T21:27:34.159Z,38.53
2023-02-06T21:30:02.012Z,29.17
2023-02-06T21:32:30.835Z,32.23
2023-02-06T21:34:59.945Z,34.37
2023-02-06T21:37:27.948Z,33.90
2023-02-06T21:39:55.656Z,31.93
2023-02-06T21:42:26.213Z,34.13
2023-02-06T21:44:54.124Z,28.27
2023-02-06T21:47:21.820Z,32.67
2023-02-06T21:49:50.711Z,29.53
2023-02-06T21:52:19.815Z,32.67
2023-02-06T21:54:47.563Z,32.20
2023-02-06T21:57:15.385Z,30.73
2023-02-06T21:59:43.689Z,32.30
2023-02-06T22:02:11.775Z,35.70
2023-02-06T22:04:39.564Z,35.03
2023-02-06T22:07:09.256Z,33.93
2023-02-06T22:09:38.540Z,28.87
2023-02-06T22:12:07.367Z,27.37
2023-02-06T22:14:35.395Z,32.10
2023-02-06T22:17:03.121Z,27.13
2023-02-06T22:19:31.385Z,25.17
2023-02-06T22:21:59.086Z,31.37
2023-02-06T22:24:27.244Z,24.87
2023-02-06T22:26:56.378Z,31.73
2023-02-06T22:29:24.554Z,31.10
2023-02-06T22:31:52.558Z,28.73
2023-02-06T22:34:21.202Z,28.53
2023-02-06T22:36:51.019Z,26.73
2023-02-06T22:39:18.927Z,30.83
2023-02-06T22:41:46.931Z,25.80
2023-02-06T22:44:17.145Z,33.87
2023-02-06T22:46:45.618Z,32.40
2023-02-06T22:49:13.454Z,30.40
2023-02-06T22:51:41.615Z,32.83
2023-02-06T22:54:10.591Z,33.23
2023-02-06T22:56:38.894Z,32.23
2023-02-06T22:59:07.720Z,32.73
2023-02-06T23:01:38.144Z,26.43
2023-02-06T23:04:06.798Z,27.30
2023-02-06T23:06:35.237Z,26.00
2023-02-06T23:09:03.681Z,30.00
2023-02-06T23:11:32.451Z,23.03
2023-02-06T23:14:01.494Z,31.10
2023-02-06T23:16:29.897Z,27.47
2023-02-06T23:18:59.175Z,21.63
2023-02-06T23:21:27.999Z,22.20
2023-02-06T23:23:56.256Z,21.77
2023-02-06T23:26:24.179Z,23.60
2023-02-06T23:28:52.390Z,22.33
2023-02-06T23:34:03.430Z,24.67
2023-02-06T23:36:31.311Z,25.40
2023-02-06T23:38:58.978Z,24.07
2023-02-06T23:41:28.997Z,27.37
2023-02-06T23:43:57.858Z,20.83
2023-02-06T23:46:25.845Z,21.60
2023-02-06T23:48:53.637Z,26.53
2023-02-06T23:51:23.116Z,22.10
2023-02-06T23:53:50.786Z,18.60
2023-02-06T23:56:21.604Z,23.90
2023-02-06T23:58:49.307Z,20.57
